Turret, Colorado
Current Conditions -  °F | °C
As of 9:15 AM on Thursday 29 Jan 2015 (Local Time) from KANK Reporting Station
Overcast Overcast  
Wind Chill: -3°   Ceiling: 1900
Heat Index:   Visibility: 10mi
Dew Point: -7°   Wind: 5mph
Humidity: 62%   Direction: 320°NW
Pressure: 30.57"   Gusts: NA
Location:  38.5561°N, 106.066°W
Report Text: KANK 291615Z AUTO 32004KT 10SM OVC019 00/M06 A3057 RMK AO1 T00001065
Loading
Personal Weather Stations






























Interactive Weather Map New forecast layout! Learn more

10-Day Weather Forecast

Advertisements
Track Severe Weather on mobile